Aviation Digital Data Service (ADDS)

Output produced by METARs form (0751 UTC 30 October 2020)
found at http://www.aviationweather.gov/metar/data/
 
METAR text: UTDT 300500Z VRB01MPS 6000 NSC 14/M02 Q1026 R35/CLRD70 RMK QFE729/0973
Conditions at: UTDT (QURGHONTEPPA , TJ) observed 0500 UTC 30 October 2020
Temperature: 14.0°C (57°F)
Dewpoint: -2.0°C (28°F) [RH = 33%]
Pressure (altimeter): 30.30 inches Hg (1026.0 mb)
Winds: variable direction winds at 2 MPH (2 knots; 1.0 m/s)
Visibility: 4 miles ( 6 km)
Ceiling: at least 12,000 feet AGL
Clouds: sky clear below 12,000 feet AGL
Weather: no significant weather observed at this time

METAR text: UTDT 300430Z 00000MPS 6000 NSC 13/01 Q1026 R35/CLRD70 RMK QFE729/0973
Conditions at: UTDT (QURGHONTEPPA , TJ) observed 0430 UTC 30 October 2020
Temperature: 13.0°C (55°F)
Dewpoint: 1.0°C (34°F) [RH = 44%]
Pressure (altimeter): 30.30 inches Hg (1026.0 mb)
Winds: calm
Visibility: 4 miles ( 6 km)
Ceiling: at least 12,000 feet AGL
Clouds: sky clear below 12,000 feet AGL
Weather: no significant weather observed at this time

METAR text: UTDT 300400Z 00000MPS 6000 NSC 12/00 Q1026 R35/CLRD70 RMK QFE729/0973
Conditions at: UTDT (QURGHONTEPPA , TJ) observed 0400 UTC 30 October 2020
Temperature: 12.0°C (54°F)
Dewpoint: 0.0°C (32°F) [RH = 44%]
Pressure (altimeter): 30.30 inches Hg (1026.0 mb)
Winds: calm
Visibility: 4 miles ( 6 km)
Ceiling: at least 12,000 feet AGL
Clouds: sky clear below 12,000 feet AGL
Weather: no significant weather observed at this time

METAR text: UTDT 300330Z 00000MPS 5000 BR NSC 10/01 Q1026 R35/CLRD70 RMK QFE729/0973
Conditions at: UTDT (QURGHONTEPPA , TJ) observed 0330 UTC 30 October 2020
Temperature: 10.0°C (50°F)
Dewpoint: 1.0°C (34°F) [RH = 53%]
Pressure (altimeter): 30.30 inches Hg (1026.0 mb)
Winds: calm
Visibility: 3 miles ( 5 km)
Ceiling: at least 12,000 feet AGL
Clouds: sky clear below 12,000 feet AGL
Weather: BR  (mist)

METAR text: UTDT 300300Z 00000MPS 5000 BR NSC 06/02 Q1026 R35/CLRD70 RMK QFE729/0973
Conditions at: UTDT (QURGHONTEPPA , TJ) observed 0300 UTC 30 October 2020
Temperature: 6.0°C (43°F)
Dewpoint: 2.0°C (36°F) [RH = 75%]
Pressure (altimeter): 30.30 inches Hg (1026.0 mb)
Winds: calm
Visibility: 3 miles ( 5 km)
Ceiling: at least 12,000 feet AGL
Clouds: sky clear below 12,000 feet AGL
Weather: BR  (mist)

METAR text: UTDT 300230Z 00000MPS 5000 BR NSC 04/01 Q1025 R35/CLRD70 RMK QFE729/0972
Conditions at: UTDT (QURGHONTEPPA , TJ) observed 0230 UTC 30 October 2020
Temperature: 4.0°C (39°F)
Dewpoint: 1.0°C (34°F) [RH = 81%]
Pressure (altimeter): 30.27 inches Hg (1025.0 mb)
Winds: calm
Visibility: 3 miles ( 5 km)
Ceiling: at least 12,000 feet AGL
Clouds: sky clear below 12,000 feet AGL
Weather: BR  (mist)

METAR text: UTDT 300200Z 16001MPS 5000 BR FEW043 03/02 Q1025 R35/CLRD70 RMK QFE729/0972
Conditions at: UTDT (QURGHONTEPPA , TJ) observed 0200 UTC 30 October 2020
Temperature: 3.0°C (37°F)
Dewpoint: 2.0°C (36°F) [RH = 93%]
Pressure (altimeter): 30.27 inches Hg (1025.0 mb)
Winds: from the SSE (160 degrees) at 2 MPH (2 knots; 1.0 m/s)
Visibility: 3 miles ( 5 km)
Ceiling: at least 12,000 feet AGL
Clouds: few clouds at 4300 feet AGL
Weather: BR  (mist)

METAR text: UTDT 300130Z 00000MPS 5000 BR FEW043 03/02 Q1025 R35/CLRD70 RMK QFE729/0972
Conditions at: UTDT (QURGHONTEPPA , TJ) observed 0130 UTC 30 October 2020
Temperature: 3.0°C (37°F)
Dewpoint: 2.0°C (36°F) [RH = 93%]
Pressure (altimeter): 30.27 inches Hg (1025.0 mb)
Winds: calm
Visibility: 3 miles ( 5 km)
Ceiling: at least 12,000 feet AGL
Clouds: few clouds at 4300 feet AGL
Weather: BR  (mist)

METAR text: UTDT 300100Z 00000MPS 5000 BR FEW043 03/02 Q1025 R35/CLRD70 RMK QFE729/0972
Conditions at: UTDT (QURGHONTEPPA , TJ) observed 0100 UTC 30 October 2020
Temperature: 3.0°C (37°F)
Dewpoint: 2.0°C (36°F) [RH = 93%]
Pressure (altimeter): 30.27 inches Hg (1025.0 mb)
Winds: calm
Visibility: 3 miles ( 5 km)
Ceiling: at least 12,000 feet AGL
Clouds: few clouds at 4300 feet AGL
Weather: BR  (mist)

METAR text: UTDT 300030Z 00000MPS 5000 BR FEW043 04/02 Q1025 R35/CLRD70 RMK QFE729/0972
Conditions at: UTDT (QURGHONTEPPA , TJ) observed 0030 UTC 30 October 2020
Temperature: 4.0°C (39°F)
Dewpoint: 2.0°C (36°F) [RH = 87%]
Pressure (altimeter): 30.27 inches Hg (1025.0 mb)
Winds: calm
Visibility: 3 miles ( 5 km)
Ceiling: at least 12,000 feet AGL
Clouds: few clouds at 4300 feet AGL
Weather: BR  (mist)

METAR text: UTDT 300000Z 00000MPS 6000 FEW043 04/03 Q1025 R35/CLRD70 RMK QFE729/0972
Conditions at: UTDT (QURGHONTEPPA , TJ) observed 0000 UTC 30 October 2020
Temperature: 4.0°C (39°F)
Dewpoint: 3.0°C (37°F) [RH = 93%]
Pressure (altimeter): 30.27 inches Hg (1025.0 mb)
Winds: calm
Visibility: 4 miles ( 6 km)
Ceiling: at least 12,000 feet AGL
Clouds: few clouds at 4300 feet AGL
Weather: no significant weather observed at this time

METAR text: UTDT 292330Z 00000MPS 6000 FEW043 05/03 Q1025 R35/CLRD70 RMK QFE729/0972
Conditions at: UTDT (QURGHONTEPPA , TJ) observed 2330 UTC 29 October 2020
Temperature: 5.0°C (41°F)
Dewpoint: 3.0°C (37°F) [RH = 87%]
Pressure (altimeter): 30.27 inches Hg (1025.0 mb)
Winds: calm
Visibility: 4 miles ( 6 km)
Ceiling: at least 12,000 feet AGL
Clouds: few clouds at 4300 feet AGL
Weather: no significant weather observed at this time

METAR text: UTDT 292300Z 00000MPS 6000 FEW043 04/02 Q1025 R35/CLRD70 RMK QFE729/0972
Conditions at: UTDT (QURGHONTEPPA , TJ) observed 2300 UTC 29 October 2020
Temperature: 4.0°C (39°F)
Dewpoint: 2.0°C (36°F) [RH = 87%]
Pressure (altimeter): 30.27 inches Hg (1025.0 mb)
Winds: calm
Visibility: 4 miles ( 6 km)
Ceiling: at least 12,000 feet AGL
Clouds: few clouds at 4300 feet AGL
Weather: no significant weather observed at this time

METAR text: UTDT 292230Z 00000MPS 5000 HZ FEW030 04/02 Q1025 R35/CLRD70 RMK QFE729/0972
Conditions at: UTDT (QURGHONTEPPA , TJ) observed 2230 UTC 29 October 2020
Temperature: 4.0°C (39°F)
Dewpoint: 2.0°C (36°F) [RH = 87%]
Pressure (altimeter): 30.27 inches Hg (1025.0 mb)
Winds: calm
Visibility: 3 miles ( 5 km)
Ceiling: at least 12,000 feet AGL
Clouds: few clouds at 3000 feet AGL
Weather: HZ  (haze)

METAR text: UTDT 292200Z 00000MPS 5000 HZ FEW030 05/02 Q1026 R35/CLRD70 RMK QFE729/0973
Conditions at: UTDT (QURGHONTEPPA , TJ) observed 2200 UTC 29 October 2020
Temperature: 5.0°C (41°F)
Dewpoint: 2.0°C (36°F) [RH = 81%]
Pressure (altimeter): 30.30 inches Hg (1026.0 mb)
Winds: calm
Visibility: 3 miles ( 5 km)
Ceiling: at least 12,000 feet AGL
Clouds: few clouds at 3000 feet AGL
Weather: HZ  (haze)

METAR text: UTDT 292130Z 36001MPS 5000 HZ FEW030 05/02 Q1026 R35/CLRD70 RMK QFE729/0973
Conditions at: UTDT (QURGHONTEPPA , TJ) observed 2130 UTC 29 October 2020
Temperature: 5.0°C (41°F)
Dewpoint: 2.0°C (36°F) [RH = 81%]
Pressure (altimeter): 30.30 inches Hg (1026.0 mb)
Winds: from the N (360 degrees) at 2 MPH (2 knots; 1.0 m/s)
Visibility: 3 miles ( 5 km)
Ceiling: at least 12,000 feet AGL
Clouds: few clouds at 3000 feet AGL
Weather: HZ  (haze)

METAR text: UTDT 292100Z 00000MPS 5000 HZ FEW030 06/03 Q1026 R35/CLRD70 RMK QFE729/0973
Conditions at: UTDT (QURGHONTEPPA , TJ) observed 2100 UTC 29 October 2020
Temperature: 6.0°C (43°F)
Dewpoint: 3.0°C (37°F) [RH = 81%]
Pressure (altimeter): 30.30 inches Hg (1026.0 mb)
Winds: calm
Visibility: 3 miles ( 5 km)
Ceiling: at least 12,000 feet AGL
Clouds: few clouds at 3000 feet AGL
Weather: HZ  (haze)

METAR text: UTDT 292030Z 01001MPS 5000 HZ FEW030 07/03 Q1026 R35/CLRD70 RMK QFE729/0973
Conditions at: UTDT (QURGHONTEPPA , TJ) observed 2030 UTC 29 October 2020
Temperature: 7.0°C (45°F)
Dewpoint: 3.0°C (37°F) [RH = 76%]
Pressure (altimeter): 30.30 inches Hg (1026.0 mb)
Winds: from the N (10 degrees) at 2 MPH (2 knots; 1.0 m/s)
Visibility: 3 miles ( 5 km)
Ceiling: at least 12,000 feet AGL
Clouds: few clouds at 3000 feet AGL
Weather: HZ  (haze)

METAR text: UTDT 292000Z 04002MPS 5000 HZ FEW030 07/02 Q1026 R35/CLRD70 RMK QFE730/0973
Conditions at: UTDT (QURGHONTEPPA , TJ) observed 2000 UTC 29 October 2020
Temperature: 7.0°C (45°F)
Dewpoint: 2.0°C (36°F) [RH = 70%]
Pressure (altimeter): 30.30 inches Hg (1026.0 mb)
Winds: from the NE (40 degrees) at 5 MPH (4 knots; 2.1 m/s)
Visibility: 3 miles ( 5 km)
Ceiling: at least 12,000 feet AGL
Clouds: few clouds at 3000 feet AGL
Weather: HZ  (haze)

METAR text: UTDT 291930Z 03003MPS 5000 HZ FEW030 08/01 Q1026 R35/CLRD70 RMK QFE730/0973
Conditions at: UTDT (QURGHONTEPPA , TJ) observed 1930 UTC 29 October 2020
Temperature: 8.0°C (46°F)
Dewpoint: 1.0°C (34°F) [RH = 61%]
Pressure (altimeter): 30.30 inches Hg (1026.0 mb)
Winds: from the NNE (30 degrees) at 7 MPH (6 knots; 3.1 m/s)
Visibility: 3 miles ( 5 km)
Ceiling: at least 12,000 feet AGL
Clouds: few clouds at 3000 feet AGL
Weather: HZ  (haze)

METAR text: UTDT 291900Z 09003MPS 5000 HZ FEW030 10/M01 Q1026 R35/CLRD70 RMK QFE730/0973
Conditions at: UTDT (QURGHONTEPPA , TJ) observed 1900 UTC 29 October 2020
Temperature: 10.0°C (50°F)
Dewpoint: -1.0°C (30°F) [RH = 46%]
Pressure (altimeter): 30.30 inches Hg (1026.0 mb)
Winds: from the E (90 degrees) at 7 MPH (6 knots; 3.1 m/s)
Visibility: 3 miles ( 5 km)
Ceiling: at least 12,000 feet AGL
Clouds: few clouds at 3000 feet AGL
Weather: HZ  (haze)

METAR text: UTDT 291830Z 10003MPS 5000 HZ FEW030 10/M01 Q1026 R35/CLRD70 RMK QFE730/0973
Conditions at: UTDT (QURGHONTEPPA , TJ) observed 1830 UTC 29 October 2020
Temperature: 10.0°C (50°F)
Dewpoint: -1.0°C (30°F) [RH = 46%]
Pressure (altimeter): 30.30 inches Hg (1026.0 mb)
Winds: from the E (100 degrees) at 7 MPH (6 knots; 3.1 m/s)
Visibility: 3 miles ( 5 km)
Ceiling: at least 12,000 feet AGL
Clouds: few clouds at 3000 feet AGL
Weather: HZ  (haze)

METAR text: UTDT 291800Z 09003MPS 5000 HZ FEW030 10/00 Q1027 R35/CLRD70 RMK QFE730/0974
Conditions at: UTDT (QURGHONTEPPA , TJ) observed 1800 UTC 29 October 2020
Temperature: 10.0°C (50°F)
Dewpoint: 0.0°C (32°F) [RH = 50%]
Pressure (altimeter): 30.32 inches Hg (1027.0 mb)
Winds: from the E (90 degrees) at 7 MPH (6 knots; 3.1 m/s)
Visibility: 3 miles ( 5 km)
Ceiling: at least 12,000 feet AGL
Clouds: few clouds at 3000 feet AGL
Weather: HZ  (haze)

METAR text: UTDT 291730Z 10002MPS 5000 HZ FEW040 08/01 Q1027 R35/CLRD70 RMK QFE730/0974
Conditions at: UTDT (QURGHONTEPPA , TJ) observed 1730 UTC 29 October 2020
Temperature: 8.0°C (46°F)
Dewpoint: 1.0°C (34°F) [RH = 61%]
Pressure (altimeter): 30.32 inches Hg (1027.0 mb)
Winds: from the E (100 degrees) at 5 MPH (4 knots; 2.1 m/s)
Visibility: 3 miles ( 5 km)
Ceiling: at least 12,000 feet AGL
Clouds: few clouds at 4000 feet AGL
Weather: HZ  (haze)

METAR text: UTDT 291700Z VRB01MPS 5000 HZ FEW040 08/01 Q1027 R35/CLRD70 RMK QFE730/0974
Conditions at: UTDT (QURGHONTEPPA , TJ) observed 1700 UTC 29 October 2020
Temperature: 8.0°C (46°F)
Dewpoint: 1.0°C (34°F) [RH = 61%]
Pressure (altimeter): 30.32 inches Hg (1027.0 mb)
Winds: variable direction winds at 2 MPH (2 knots; 1.0 m/s)
Visibility: 3 miles ( 5 km)
Ceiling: at least 12,000 feet AGL
Clouds: few clouds at 4000 feet AGL
Weather: HZ  (haze)

METAR text: UTDT 291630Z 12001MPS 4400 HZ FEW040 09/00 Q1027 R35/CLRD70 RMK QFE730/0974
Conditions at: UTDT (QURGHONTEPPA , TJ) observed 1630 UTC 29 October 2020
Temperature: 9.0°C (48°F)
Dewpoint: 0.0°C (32°F) [RH = 53%]
Pressure (altimeter): 30.32 inches Hg (1027.0 mb)
Winds: from the ESE (120 degrees) at 2 MPH (2 knots; 1.0 m/s)
Visibility: 2.73 miles (4.39 km)
Ceiling: at least 12,000 feet AGL
Clouds: few clouds at 4000 feet AGL
Weather: HZ  (haze)

METAR text: UTDT 291600Z 10002MPS 4100 HZ FEW040 08/01 Q1027 R35/////// RMK QFE730/0974
Conditions at: UTDT (QURGHONTEPPA , TJ) observed 1600 UTC 29 October 2020
Temperature: 8.0°C (46°F)
Dewpoint: 1.0°C (34°F) [RH = 61%]
Pressure (altimeter): 30.32 inches Hg (1027.0 mb)
Winds: from the E (100 degrees) at 5 MPH (4 knots; 2.1 m/s)
Visibility: 2.55 miles (4.10 km)
Ceiling: at least 12,000 feet AGL
Clouds: few clouds at 4000 feet AGL
Weather: HZ  (haze)

METAR text: UTDT 291530Z 00000MPS 4600 HZ FEW040 08/01 Q1027 R35/////// RMK QFE730/0974
Conditions at: UTDT (QURGHONTEPPA , TJ) observed 1530 UTC 29 October 2020
Temperature: 8.0°C (46°F)
Dewpoint: 1.0°C (34°F) [RH = 61%]
Pressure (altimeter): 30.32 inches Hg (1027.0 mb)
Winds: calm
Visibility: 2.86 miles (4.60 km)
Ceiling: at least 12,000 feet AGL
Clouds: few clouds at 4000 feet AGL
Weather: HZ  (haze)

METAR text: UTDT 291500Z 00000MPS 5000 HZ FEW066 09/03 Q1027 R35/////// RMK QFE730/0974
Conditions at: UTDT (QURGHONTEPPA , TJ) observed 1500 UTC 29 October 2020
Temperature: 9.0°C (48°F)
Dewpoint: 3.0°C (37°F) [RH = 66%]
Pressure (altimeter): 30.32 inches Hg (1027.0 mb)
Winds: calm
Visibility: 3 miles ( 5 km)
Ceiling: at least 12,000 feet AGL
Clouds: few clouds at 6600 feet AGL
Weather: HZ  (haze)

METAR text: UTDT 291430Z 00000MPS 5000 HZ FEW066 09/00 Q1027 R35/////// RMK QFE730/0974
Conditions at: UTDT (QURGHONTEPPA , TJ) observed 1430 UTC 29 October 2020
Temperature: 9.0°C (48°F)
Dewpoint: 0.0°C (32°F) [RH = 53%]
Pressure (altimeter): 30.32 inches Hg (1027.0 mb)
Winds: calm
Visibility: 3 miles ( 5 km)
Ceiling: at least 12,000 feet AGL
Clouds: few clouds at 6600 feet AGL
Weather: HZ  (haze)

METAR text: UTDT 291400Z 16001MPS 5000 HZ FEW066 10/02 Q1027 R35/////// RMK QFE730/0974
Conditions at: UTDT (QURGHONTEPPA , TJ) observed 1400 UTC 29 October 2020
Temperature: 10.0°C (50°F)
Dewpoint: 2.0°C (36°F) [RH = 57%]
Pressure (altimeter): 30.32 inches Hg (1027.0 mb)
Winds: from the SSE (160 degrees) at 2 MPH (2 knots; 1.0 m/s)
Visibility: 3 miles ( 5 km)
Ceiling: at least 12,000 feet AGL
Clouds: few clouds at 6600 feet AGL
Weather: HZ  (haze)

METAR text: UTDT 291330Z 00000MPS 5000 HZ FEW066 10/02 Q1027 R35/////// RMK QFE730/0974
Conditions at: UTDT (QURGHONTEPPA , TJ) observed 1330 UTC 29 October 2020
Temperature: 10.0°C (50°F)
Dewpoint: 2.0°C (36°F) [RH = 57%]
Pressure (altimeter): 30.32 inches Hg (1027.0 mb)
Winds: calm
Visibility: 3 miles ( 5 km)
Ceiling: at least 12,000 feet AGL
Clouds: few clouds at 6600 feet AGL
Weather: HZ  (haze)

METAR text: UTDT 291300Z 00000MPS 5000 HZ FEW066 12/01 Q1027 R35/////// RMK QFE730/0974
Conditions at: UTDT (QURGHONTEPPA , TJ) observed 1300 UTC 29 October 2020
Temperature: 12.0°C (54°F)
Dewpoint: 1.0°C (34°F) [RH = 47%]
Pressure (altimeter): 30.32 inches Hg (1027.0 mb)
Winds: calm
Visibility: 3 miles ( 5 km)
Ceiling: at least 12,000 feet AGL
Clouds: few clouds at 6600 feet AGL
Weather: HZ  (haze)

METAR text: UTDT 291230Z 00000MPS 6000 FEW100 14/01 Q1027 R35/////// RMK QFE730/0974
Conditions at: UTDT (QURGHONTEPPA , TJ) observed 1230 UTC 29 October 2020
Temperature: 14.0°C (57°F)
Dewpoint: 1.0°C (34°F) [RH = 41%]
Pressure (altimeter): 30.32 inches Hg (1027.0 mb)
Winds: calm
Visibility: 4 miles ( 6 km)
Ceiling: at least 12,000 feet AGL
Clouds: few clouds at 10000 feet AGL
Weather: no significant weather observed at this time

METAR text: UTDT 291200Z 29001MPS 6000 NSC 16/M00 Q1027 R35/CLRD70 RMK QFE730/0974
Conditions at: UTDT (QURGHONTEPPA , TJ) observed 1200 UTC 29 October 2020
Temperature: 16.0°C (61°F)
Dewpoint: 0.0°C (32°F) [RH = 34%]
Pressure (altimeter): 30.32 inches Hg (1027.0 mb)
Winds: from the WNW (290 degrees) at 2 MPH (2 knots; 1.0 m/s)
Visibility: 4 miles ( 6 km)
Ceiling: at least 12,000 feet AGL
Clouds: sky clear below 12,000 feet AGL
Weather: no significant weather observed at this time

METAR text: UTDT 291130Z 33001MPS 6000 NSC 18/M04 Q1027 R35/CLRD70 RMK QFE730/0974
Conditions at: UTDT (QURGHONTEPPA , TJ) observed 1130 UTC 29 October 2020
Temperature: 18.0°C (64°F)
Dewpoint: -4.0°C (25°F) [RH = 22%]
Pressure (altimeter): 30.32 inches Hg (1027.0 mb)
Winds: from the NNW (330 degrees) at 2 MPH (2 knots; 1.0 m/s)
Visibility: 4 miles ( 6 km)
Ceiling: at least 12,000 feet AGL
Clouds: sky clear below 12,000 feet AGL
Weather: no significant weather observed at this time

METAR text: UTDT 291100Z VRB01MPS 6000 NSC 18/M04 Q1027 R35/CLRD70 RMK QFE730/0974
Conditions at: UTDT (QURGHONTEPPA , TJ) observed 1100 UTC 29 October 2020
Temperature: 18.0°C (64°F)
Dewpoint: -4.0°C (25°F) [RH = 22%]
Pressure (altimeter): 30.32 inches Hg (1027.0 mb)
Winds: variable direction winds at 2 MPH (2 knots; 1.0 m/s)
Visibility: 4 miles ( 6 km)
Ceiling: at least 12,000 feet AGL
Clouds: sky clear below 12,000 feet AGL
Weather: no significant weather observed at this time

METAR text: UTDT 291030Z 35002MPS 320V020 6000 FEW066 19/M04 Q1028 R35/CLRD70 RMK QFE731/0974
Conditions at: UTDT (QURGHONTEPPA , TJ) observed 1030 UTC 29 October 2020
Temperature: 19.0°C (66°F)
Dewpoint: -4.0°C (25°F) [RH = 21%]
Pressure (altimeter): 30.35 inches Hg (1028.0 mb)
Winds: from the N (350 degrees) at 5 MPH (4 knots; 2.1 m/s)
Visibility: 4 miles ( 6 km)
Ceiling: at least 12,000 feet AGL
Clouds: few clouds at 6600 feet AGL
Weather: no significant weather observed at this time

METAR text: UTDT 291000Z VRB01MPS 6000 FEW066 19/M05 Q1028 R35/CLRD70 RMK QFE731/0975
Conditions at: UTDT (QURGHONTEPPA , TJ) observed 1000 UTC 29 October 2020
Temperature: 19.0°C (66°F)
Dewpoint: -5.0°C (23°F) [RH = 19%]
Pressure (altimeter): 30.35 inches Hg (1028.0 mb)
Winds: variable direction winds at 2 MPH (2 knots; 1.0 m/s)
Visibility: 4 miles ( 6 km)
Ceiling: at least 12,000 feet AGL
Clouds: few clouds at 6600 feet AGL
Weather: no significant weather observed at this time

METAR text: UTDT 290930Z 36002MPS 330V040 6000 FEW036 19/M06 Q1028 R35/CLRD70 RMK QFE731/0975
Conditions at: UTDT (QURGHONTEPPA , TJ) observed 0930 UTC 29 October 2020
Temperature: 19.0°C (66°F)
Dewpoint: -6.0°C (21°F) [RH = 18%]
Pressure (altimeter): 30.35 inches Hg (1028.0 mb)
Winds: from the N (360 degrees) at 5 MPH (4 knots; 2.1 m/s)
Visibility: 4 miles ( 6 km)
Ceiling: at least 12,000 feet AGL
Clouds: few clouds at 3600 feet AGL
Weather: no significant weather observed at this time

METAR text: UTDT 290900Z VRB01MPS 6000 FEW036 18/M05 Q1029 R35/CLRD70 RMK QFE731/0975
Conditions at: UTDT (QURGHONTEPPA , TJ) observed 0900 UTC 29 October 2020
Temperature: 18.0°C (64°F)
Dewpoint: -5.0°C (23°F) [RH = 20%]
Pressure (altimeter): 30.38 inches Hg (1029.0 mb)
Winds: variable direction winds at 2 MPH (2 knots; 1.0 m/s)
Visibility: 4 miles ( 6 km)
Ceiling: at least 12,000 feet AGL
Clouds: few clouds at 3600 feet AGL
Weather: no significant weather observed at this time

METAR text: UTDT 290830Z VRB01MPS 6000 FEW036 18/M05 Q1029 R35/CLRD70 RMK QFE732/0976
Conditions at: UTDT (QURGHONTEPPA , TJ) observed 0830 UTC 29 October 2020
Temperature: 18.0°C (64°F)
Dewpoint: -5.0°C (23°F) [RH = 20%]
Pressure (altimeter): 30.38 inches Hg (1029.0 mb)
Winds: variable direction winds at 2 MPH (2 knots; 1.0 m/s)
Visibility: 4 miles ( 6 km)
Ceiling: at least 12,000 feet AGL
Clouds: few clouds at 3600 feet AGL
Weather: no significant weather observed at this time

METAR text: UTDT 290800Z VRB01MPS 6000 FEW036 17/M06 Q1030 R35/CLRD70 RMK QFE732/0976
Conditions at: UTDT (QURGHONTEPPA , TJ) observed 0800 UTC 29 October 2020
Temperature: 17.0°C (63°F)
Dewpoint: -6.0°C (21°F) [RH = 20%]
Pressure (altimeter): 30.41 inches Hg (1030.0 mb)
Winds: variable direction winds at 2 MPH (2 knots; 1.0 m/s)
Visibility: 4 miles ( 6 km)
Ceiling: at least 12,000 feet AGL
Clouds: few clouds at 3600 feet AGL
Weather: no significant weather observed at this time

METAR text: UTDT 290730Z VRB01MPS 7000 FEW033 16/M07 Q1030 R35/CLRD70 RMK QFE733/0977
Conditions at: UTDT (QURGHONTEPPA , TJ) observed 0730 UTC 29 October 2020
Temperature: 16.0°C (61°F)
Dewpoint: -7.0°C (19°F) [RH = 20%]
Pressure (altimeter): 30.41 inches Hg (1030.0 mb)
Winds: variable direction winds at 2 MPH (2 knots; 1.0 m/s)
Visibility: 4 miles ( 7 km)
Ceiling: at least 12,000 feet AGL
Clouds: few clouds at 3300 feet AGL
Weather: no significant weather observed at this time

METAR text: UTDT 290700Z VRB01MPS 7000 FEW033 16/M07 Q1031 R35/CLRD70 RMK QFE733/0977
Conditions at: UTDT (QURGHONTEPPA , TJ) observed 0700 UTC 29 October 2020
Temperature: 16.0°C (61°F)
Dewpoint: -7.0°C (19°F) [RH = 20%]
Pressure (altimeter): 30.44 inches Hg (1031.0 mb)
Winds: variable direction winds at 2 MPH (2 knots; 1.0 m/s)
Visibility: 4 miles ( 7 km)
Ceiling: at least 12,000 feet AGL
Clouds: few clouds at 3300 feet AGL
Weather: no significant weather observed at this time

METAR text: UTDT 290630Z VRB01MPS 7000 FEW033 15/M06 Q1031 R35/CLRD70 RMK QFE733/0978
Conditions at: UTDT (QURGHONTEPPA , TJ) observed 0630 UTC 29 October 2020
Temperature: 15.0°C (59°F)
Dewpoint: -6.0°C (21°F) [RH = 23%]
Pressure (altimeter): 30.44 inches Hg (1031.0 mb)
Winds: variable direction winds at 2 MPH (2 knots; 1.0 m/s)
Visibility: 4 miles ( 7 km)
Ceiling: at least 12,000 feet AGL
Clouds: few clouds at 3300 feet AGL
Weather: no significant weather observed at this time

METAR text: UTDT 290600Z VRB01MPS 7000 FEW033 14/M05 Q1032 R35/CLRD70 RMK QFE734/0978
Conditions at: UTDT (QURGHONTEPPA , TJ) observed 0600 UTC 29 October 2020
Temperature: 14.0°C (57°F)
Dewpoint: -5.0°C (23°F) [RH = 26%]
Pressure (altimeter): 30.47 inches Hg (1032.0 mb)
Winds: variable direction winds at 2 MPH (2 knots; 1.0 m/s)
Visibility: 4 miles ( 7 km)
Ceiling: at least 12,000 feet AGL
Clouds: few clouds at 3300 feet AGL
Weather: no significant weather observed at this time

METAR text: UTDT 290530Z VRB01MPS 6000 FEW029 13/M05 Q1032 R35/CLRD70 RMK QFE734/0978
Conditions at: UTDT (QURGHONTEPPA , TJ) observed 0530 UTC 29 October 2020
Temperature: 13.0°C (55°F)
Dewpoint: -5.0°C (23°F) [RH = 28%]
Pressure (altimeter): 30.47 inches Hg (1032.0 mb)
Winds: variable direction winds at 2 MPH (2 knots; 1.0 m/s)
Visibility: 4 miles ( 6 km)
Ceiling: at least 12,000 feet AGL
Clouds: few clouds at 2900 feet AGL
Weather: no significant weather observed at this time

METAR text: UTDT 290500Z VRB01MPS 6000 FEW029 12/M03 Q1032 R35/CLRD70 RMK QFE734/0978
Conditions at: UTDT (QURGHONTEPPA , TJ) observed 0500 UTC 29 October 2020
Temperature: 12.0°C (54°F)
Dewpoint: -3.0°C (27°F) [RH = 35%]
Pressure (altimeter): 30.47 inches Hg (1032.0 mb)
Winds: variable direction winds at 2 MPH (2 knots; 1.0 m/s)
Visibility: 4 miles ( 6 km)
Ceiling: at least 12,000 feet AGL
Clouds: few clouds at 2900 feet AGL
Weather: no significant weather observed at this time

METAR text: UTDT 290430Z VRB01MPS 6000 FEW029 11/M03 Q1032 R35/CLRD70 RMK QFE734/0978
Conditions at: UTDT (QURGHONTEPPA , TJ) observed 0430 UTC 29 October 2020
Temperature: 11.0°C (52°F)
Dewpoint: -3.0°C (27°F) [RH = 37%]
Pressure (altimeter): 30.47 inches Hg (1032.0 mb)
Winds: variable direction winds at 2 MPH (2 knots; 1.0 m/s)
Visibility: 4 miles ( 6 km)
Ceiling: at least 12,000 feet AGL
Clouds: few clouds at 2900 feet AGL
Weather: no significant weather observed at this time

METAR text: UTDT 290400Z 00000MPS 6000 FEW029 11/M02 Q1032 R35/CLRD70 RMK QFE734/0978
Conditions at: UTDT (QURGHONTEPPA , TJ) observed 0400 UTC 29 October 2020
Temperature: 11.0°C (52°F)
Dewpoint: -2.0°C (28°F) [RH = 40%]
Pressure (altimeter): 30.47 inches Hg (1032.0 mb)
Winds: calm
Visibility: 4 miles ( 6 km)
Ceiling: at least 12,000 feet AGL
Clouds: few clouds at 2900 feet AGL
Weather: no significant weather observed at this time

METAR text: UTDT 290330Z 00000MPS 6000 FEW029 09/00 Q1031 R35/CLRD70 RMK QFE733/0978
Conditions at: UTDT (QURGHONTEPPA , TJ) observed 0330 UTC 29 October 2020
Temperature: 9.0°C (48°F)
Dewpoint: 0.0°C (32°F) [RH = 53%]
Pressure (altimeter): 30.44 inches Hg (1031.0 mb)
Winds: calm
Visibility: 4 miles ( 6 km)
Ceiling: at least 12,000 feet AGL
Clouds: few clouds at 2900 feet AGL
Weather: no significant weather observed at this time

METAR text: UTDT 290300Z 00000MPS 5000 BR FEW029 06/00 Q1031 R35/////// RMK QFE733/0978
Conditions at: UTDT (QURGHONTEPPA , TJ) observed 0300 UTC 29 October 2020
Temperature: 6.0°C (43°F)
Dewpoint: 0.0°C (32°F) [RH = 65%]
Pressure (altimeter): 30.44 inches Hg (1031.0 mb)
Winds: calm
Visibility: 3 miles ( 5 km)
Ceiling: at least 12,000 feet AGL
Clouds: few clouds at 2900 feet AGL
Weather: BR  (mist)

METAR text: UTDT 290230Z 00000MPS 5000 BR NSC 05/M00 Q1031 R35/////// RMK QFE733/0978
Conditions at: UTDT (QURGHONTEPPA , TJ) observed 0230 UTC 29 October 2020
Temperature: 5.0°C (41°F)
Dewpoint: 0.0°C (32°F) [RH = 70%]
Pressure (altimeter): 30.44 inches Hg (1031.0 mb)
Winds: calm
Visibility: 3 miles ( 5 km)
Ceiling: at least 12,000 feet AGL
Clouds: sky clear below 12,000 feet AGL
Weather: BR  (mist)

METAR text: UTDT 290200Z 00000MPS 6000 NSC 04/M01 Q1031 R35/////// RMK QFE733/0977
Conditions at: UTDT (QURGHONTEPPA , TJ) observed 0200 UTC 29 October 2020
Temperature: 4.0°C (39°F)
Dewpoint: -1.0°C (30°F) [RH = 70%]
Pressure (altimeter): 30.44 inches Hg (1031.0 mb)
Winds: calm
Visibility: 4 miles ( 6 km)
Ceiling: at least 12,000 feet AGL
Clouds: sky clear below 12,000 feet AGL
Weather: no significant weather observed at this time

METAR text: UTDT 290130Z 00000MPS 6000 FEW130 05/M00 Q1030 R35/////// RMK QFE733/0977
Conditions at: UTDT (QURGHONTEPPA , TJ) observed 0130 UTC 29 October 2020
Temperature: 5.0°C (41°F)
Dewpoint: 0.0°C (32°F) [RH = 70%]
Pressure (altimeter): 30.41 inches Hg (1030.0 mb)
Winds: calm
Visibility: 4 miles ( 6 km)
Ceiling: at least 12,000 feet AGL
Clouds: few clouds at 13000 feet AGL
Weather: no significant weather observed at this time

METAR text: UTDT 290100Z 00000MPS 6000 FEW130 04/M02 Q1030 R35/////// RMK QFE733/0977
Conditions at: UTDT (QURGHONTEPPA , TJ) observed 0100 UTC 29 October 2020
Temperature: 4.0°C (39°F)
Dewpoint: -2.0°C (28°F) [RH = 65%]
Pressure (altimeter): 30.41 inches Hg (1030.0 mb)
Winds: calm
Visibility: 4 miles ( 6 km)
Ceiling: at least 12,000 feet AGL
Clouds: few clouds at 13000 feet AGL
Weather: no significant weather observed at this time

METAR text: UTDT 290030Z 00000MPS 6000 FEW050 05/M01 Q1030 R35/////// RMK QFE733/0977
Conditions at: UTDT (QURGHONTEPPA , TJ) observed 0030 UTC 29 October 2020
Temperature: 5.0°C (41°F)
Dewpoint: -1.0°C (30°F) [RH = 65%]
Pressure (altimeter): 30.41 inches Hg (1030.0 mb)
Winds: calm
Visibility: 4 miles ( 6 km)
Ceiling: at least 12,000 feet AGL
Clouds: few clouds at 5000 feet AGL
Weather: no significant weather observed at this time

METAR text: UTDT 290000Z 00000MPS 6000 FEW050 05/M04 Q1030 R35/////// RMK QFE733/0977
Conditions at: UTDT (QURGHONTEPPA , TJ) observed 0000 UTC 29 October 2020
Temperature: 5.0°C (41°F)
Dewpoint: -4.0°C (25°F) [RH = 52%]
Pressure (altimeter): 30.41 inches Hg (1030.0 mb)
Winds: calm
Visibility: 4 miles ( 6 km)
Ceiling: at least 12,000 feet AGL
Clouds: few clouds at 5000 feet AGL
Weather: no significant weather observed at this time

METAR text: UTDT 282330Z 00000MPS 6000 FEW050 07/M06 Q1030 R35/////// RMK QFE732/0977
Conditions at: UTDT (QURGHONTEPPA , TJ) observed 2330 UTC 28 October 2020
Temperature: 7.0°C (45°F)
Dewpoint: -6.0°C (21°F) [RH = 39%]
Pressure (altimeter): 30.41 inches Hg (1030.0 mb)
Winds: calm
Visibility: 4 miles ( 6 km)
Ceiling: at least 12,000 feet AGL
Clouds: few clouds at 5000 feet AGL
Weather: no significant weather observed at this time

METAR text: UTDT 282300Z 00000MPS 8000 FEW050 06/M03 Q1030 R35/////// RMK QFE732/0976
Conditions at: UTDT (QURGHONTEPPA , TJ) observed 2300 UTC 28 October 2020
Temperature: 6.0°C (43°F)
Dewpoint: -3.0°C (27°F) [RH = 52%]
Pressure (altimeter): 30.41 inches Hg (1030.0 mb)
Winds: calm
Visibility: 5 miles ( 8 km)
Ceiling: at least 12,000 feet AGL
Clouds: few clouds at 5000 feet AGL
Weather: no significant weather observed at this time

METAR text: UTDT 282230Z 00000MPS 8000 FEW050 08/M06 Q1030 R35/////// RMK QFE732/0976
Conditions at: UTDT (QURGHONTEPPA , TJ) observed 2230 UTC 28 October 2020
Temperature: 8.0°C (46°F)
Dewpoint: -6.0°C (21°F) [RH = 36%]
Pressure (altimeter): 30.41 inches Hg (1030.0 mb)
Winds: calm
Visibility: 5 miles ( 8 km)
Ceiling: at least 12,000 feet AGL
Clouds: few clouds at 5000 feet AGL
Weather: no significant weather observed at this time

METAR text: UTDT 282200Z 13002MPS 6000 FEW050 09/M06 Q1030 R35/////// RMK QFE732/0976
Conditions at: UTDT (QURGHONTEPPA , TJ) observed 2200 UTC 28 October 2020
Temperature: 9.0°C (48°F)
Dewpoint: -6.0°C (21°F) [RH = 34%]
Pressure (altimeter): 30.41 inches Hg (1030.0 mb)
Winds: from the SE (130 degrees) at 5 MPH (4 knots; 2.1 m/s)
Visibility: 4 miles ( 6 km)
Ceiling: at least 12,000 feet AGL
Clouds: few clouds at 5000 feet AGL
Weather: no significant weather observed at this time

METAR text: UTDT 282130Z 13002MPS 6000 FEW050 09/M07 Q1030 R35/////// RMK QFE732/0976
Conditions at: UTDT (QURGHONTEPPA , TJ) observed 2130 UTC 28 October 2020
Temperature: 9.0°C (48°F)
Dewpoint: -7.0°C (19°F) [RH = 32%]
Pressure (altimeter): 30.41 inches Hg (1030.0 mb)
Winds: from the SE (130 degrees) at 5 MPH (4 knots; 2.1 m/s)
Visibility: 4 miles ( 6 km)
Ceiling: at least 12,000 feet AGL
Clouds: few clouds at 5000 feet AGL
Weather: no significant weather observed at this time

METAR text: UTDT 282100Z 14002MPS 5000 HZ FEW050 09/M05 Q1029 R35/////// RMK QFE732/0976
Conditions at: UTDT (QURGHONTEPPA , TJ) observed 2100 UTC 28 October 2020
Temperature: 9.0°C (48°F)
Dewpoint: -5.0°C (23°F) [RH = 37%]
Pressure (altimeter): 30.38 inches Hg (1029.0 mb)
Winds: from the SE (140 degrees) at 5 MPH (4 knots; 2.1 m/s)
Visibility: 3 miles ( 5 km)
Ceiling: at least 12,000 feet AGL
Clouds: few clouds at 5000 feet AGL
Weather: HZ  (haze)

METAR text: UTDT 282030Z 13002MPS 4600 HZ FEW050 10/M05 Q1029 R35/////// RMK QFE732/0976
Conditions at: UTDT (QURGHONTEPPA , TJ) observed 2030 UTC 28 October 2020
Temperature: 10.0°C (50°F)
Dewpoint: -5.0°C (23°F) [RH = 34%]
Pressure (altimeter): 30.38 inches Hg (1029.0 mb)
Winds: from the SE (130 degrees) at 5 MPH (4 knots; 2.1 m/s)
Visibility: 2.86 miles (4.60 km)
Ceiling: at least 12,000 feet AGL
Clouds: few clouds at 5000 feet AGL
Weather: HZ  (haze)

METAR text: UTDT 282000Z 12001MPS 4600 HZ FEW050 10/M04 Q1029 R35/////// RMK QFE732/0976
Conditions at: UTDT (QURGHONTEPPA , TJ) observed 2000 UTC 28 October 2020
Temperature: 10.0°C (50°F)
Dewpoint: -4.0°C (25°F) [RH = 37%]
Pressure (altimeter): 30.38 inches Hg (1029.0 mb)
Winds: from the ESE (120 degrees) at 2 MPH (2 knots; 1.0 m/s)
Visibility: 2.86 miles (4.60 km)
Ceiling: at least 12,000 feet AGL
Clouds: few clouds at 5000 feet AGL
Weather: HZ  (haze)

Forecast for: UTDT (QURGHONTEPPA , TJ)
Text: TAF UTDT 300300Z 3004/3013 VRB02MPS 6000 FEW060 SCT100
Forecast period: 0400 to 1300 UTC 30 October 2020
Forecast type: FROM: standard forecast or significant change
Winds: variable direction winds at 5 MPH (4 knots; 2.1 m/s)
Visibility: 4 miles (6 km)
Ceiling: at least 12,000 feet AGL
Clouds: few clouds at 6000 feet AGL
scattered clouds at 10000 feet AGL
Weather: no significant weather forecast for this period
Text: TEMPO 3004/3005 3100 BR FU
Forecast period: 0400 to 0500 UTC 30 October 2020
Forecast type: TEMPORARY: The following changes expected for less than half the time period
Visibility: 1.93 miles (3.11 km)
Ceiling: unknown
Clouds: missing
Weather: BR FU  (mist, smoke)